createdAt,value
2019-04-14T00:01:36.959Z,85.94
2019-04-14T00:04:18.729Z,85.84
2019-04-14T00:06:51.182Z,85.72
2019-04-14T00:09:23.220Z,85.66
2019-04-14T00:11:56.945Z,85.28
2019-04-14T00:14:29.390Z,85.26
2019-04-14T00:17:02.134Z,84.94
2019-04-14T00:19:34.888Z,85.05
2019-04-14T00:22:07.317Z,84.88
2019-04-14T00:24:40.258Z,84.57
2019-04-14T00:27:12.815Z,83.89
2019-04-14T00:29:45.768Z,83.60
2019-04-14T00:32:18.331Z,82.16
2019-04-14T00:35:16.665Z,82.17
2019-04-14T00:38:13.692Z,82.30
2019-04-14T00:40:52.507Z,81.19
2019-04-14T00:43:46.100Z,80.84
2019-04-14T00:46:27.882Z,80.65
2019-04-14T00:49:00.591Z,79.89
2019-04-14T00:51:33.131Z,80.27
2019-04-14T00:54:06.526Z,80.23
2019-04-14T00:56:39.024Z,79.92
2019-04-14T00:59:11.464Z,80.30
2019-04-14T01:01:43.770Z,79.44
2019-04-14T01:04:16.540Z,79.73
2019-04-14T01:06:49.044Z,79.57
2019-04-14T01:09:21.650Z,79.64
2019-04-14T01:11:53.768Z,79.74
2019-04-14T01:14:25.827Z,79.61
2019-04-14T01:16:58.043Z,79.60
2019-04-14T01:19:30.939Z,79.40
2019-04-14T01:22:03.218Z,79.38
2019-04-14T01:24:35.974Z,79.61
2019-04-14T01:27:08.214Z,79.32
2019-04-14T01:29:40.525Z,79.76
2019-04-14T01:32:13.293Z,79.28
2019-04-14T01:34:45.618Z,79.59
2019-04-14T01:37:17.973Z,79.38
2019-04-14T01:39:50.353Z,78.88
2019-04-14T01:42:22.405Z,78.88
2019-04-14T01:44:54.751Z,78.78
2019-04-14T01:47:27.071Z,78.93
2019-04-14T01:49:59.477Z,78.65
2019-04-14T01:52:59.180Z,78.68
2019-04-14T01:55:46.258Z,78.59
2019-04-14T01:58:25.064Z,78.63
2019-04-14T02:01:14.963Z,79.01
2019-04-14T02:03:47.793Z,78.86
2019-04-14T02:06:20.468Z,78.78
2019-04-14T02:08:54.720Z,79.03
2019-04-14T02:11:27.065Z,79.34
2019-04-14T02:13:59.400Z,79.67
2019-04-14T02:16:39.763Z,79.96
2019-04-14T02:19:06.620Z,80.14
2019-04-14T02:21:38.960Z,80.33
2019-04-14T02:24:11.415Z,80.35
2019-04-14T02:26:43.913Z,80.36
2019-04-14T02:29:16.841Z,80.49
2019-04-14T02:32:17.380Z,80.31
2019-04-14T02:34:49.784Z,80.27
2019-04-14T02:37:26.708Z,80.18
2019-04-14T02:40:01.003Z,80.09
2019-04-14T02:53:05.216Z,79.67
2019-04-14T02:55:15.319Z,79.50
2019-04-14T02:57:52.658Z,79.40
2019-04-14T03:00:35.666Z,79.45
2019-04-14T03:02:59.554Z,79.27
2019-04-14T03:05:37.686Z,79.04
2019-04-14T03:08:06.486Z,78.96
2019-04-14T03:10:40.283Z,78.76
2019-04-14T03:16:13.741Z,78.62
2019-04-14T03:21:43.832Z,78.10
2019-04-14T03:24:31.721Z,77.90
2019-04-14T03:27:15.196Z,77.95
2019-04-14T03:29:59.949Z,77.85
2019-04-14T03:33:14.165Z,77.42
2019-04-14T03:35:20.017Z,76.97
2019-04-14T03:37:48.492Z,77.20
2019-04-14T03:40:08.820Z,76.56
2019-04-14T03:42:45.969Z,76.80
2019-04-14T03:45:28.346Z,76.67
2019-04-14T03:48:15.193Z,76.46
2019-04-14T03:53:08.165Z,76.18
2019-04-14T03:55:25.493Z,76.20
2019-04-14T03:57:45.462Z,75.85
2019-04-14T04:00:18.069Z,75.37
2019-04-14T04:02:51.176Z,75.28
2019-04-14T04:05:23.806Z,74.66
2019-04-14T04:07:56.065Z,73.80
2019-04-14T04:10:29.208Z,73.96
2019-04-14T04:13:01.960Z,73.63
2019-04-14T04:15:34.403Z,72.37
2019-04-14T04:18:20.280Z,71.95
2019-04-14T04:21:13.988Z,71.84
2019-04-14T04:23:56.083Z,70.73
2019-04-14T04:26:38.676Z,70.45
2019-04-14T04:29:15.780Z,70.01
2019-04-14T04:32:05.587Z,69.50
2019-04-14T04:34:59.915Z,68.80
2019-04-14T04:38:03.049Z,69.04
2019-04-14T04:40:35.384Z,68.33
2019-04-14T04:43:07.972Z,67.83
2019-04-14T04:45:40.887Z,67.21
2019-04-14T04:48:13.213Z,66.78
2019-04-14T04:50:45.398Z,66.73
2019-04-14T04:53:18.097Z,66.58
2019-04-14T04:55:50.761Z,66.42
2019-04-14T04:58:22.733Z,66.63
2019-04-14T05:00:57.352Z,66.54
2019-04-14T05:03:29.752Z,66.35
2019-04-14T05:07:09.716Z,65.63
2019-04-14T05:10:06.755Z,65.76
2019-04-14T05:12:48.143Z,65.33
2019-04-14T05:15:31.537Z,65.08
2019-04-14T05:18:04.596Z,64.73
2019-04-14T05:20:37.778Z,63.66
2019-04-14T05:23:10.256Z,63.12
2019-04-14T05:25:43.027Z,62.73
2019-04-14T05:28:15.582Z,61.17
2019-04-14T05:30:48.329Z,61.36
2019-04-14T05:33:20.710Z,59.30
2019-04-14T05:35:53.216Z,59.18
2019-04-14T05:38:26.161Z,57.86
2019-04-14T05:41:00.328Z,57.13
2019-04-14T05:43:40.613Z,56.07
2019-04-14T05:46:06.236Z,50.96
2019-04-14T05:48:38.261Z,45.48
2019-04-14T05:51:10.983Z,44.12
2019-04-14T05:53:43.832Z,44.08
2019-04-14T05:56:16.443Z,44.99
2019-04-14T05:58:49.326Z,46.04
2019-04-14T06:01:22.361Z,46.62
2019-04-14T06:03:54.562Z,47.47
2019-04-14T06:06:26.716Z,47.78
2019-04-14T06:08:58.935Z,46.70
2019-04-14T06:11:31.218Z,47.08
2019-04-14T06:14:03.250Z,46.94
2019-04-14T06:16:35.256Z,46.35
2019-04-14T06:19:08.654Z,46.03
2019-04-14T06:21:42.742Z,45.88
2019-04-14T06:24:14.802Z,45.16
2019-04-14T06:26:46.927Z,44.09
2019-04-14T06:29:18.907Z,42.83
2019-04-14T06:32:19.981Z,42.18
2019-04-14T06:35:09.396Z,41.86
2019-04-14T06:37:53.878Z,40.63
2019-04-14T06:40:26.990Z,39.53
2019-04-14T06:42:58.957Z,37.31
2019-04-14T06:45:30.908Z,34.39
2019-04-14T06:48:02.924Z,32.71
2019-04-14T06:50:35.018Z,31.21
2019-04-14T06:53:07.152Z,30.50
2019-04-14T06:55:39.141Z,30.71
2019-04-14T06:58:11.300Z,30.30
2019-04-14T07:00:43.273Z,27.63
2019-04-14T07:03:15.255Z,25.63
2019-04-14T07:05:47.239Z,26.84
2019-04-14T07:08:19.182Z,26.98
2019-04-14T07:10:51.277Z,25.77
2019-04-14T07:13:23.256Z,26.10
2019-04-14T07:15:56.734Z,27.26
2019-04-14T07:18:28.759Z,28.49
2019-04-14T07:21:01.017Z,29.23
2019-04-14T07:23:33.009Z,28.53
2019-04-14T07:26:05.175Z,27.91
2019-04-14T07:28:37.165Z,28.32
2019-04-14T07:31:23.767Z,25.76
2019-04-14T07:34:04.170Z,22.09
2019-04-14T07:36:54.997Z,21.74
2019-04-14T07:39:45.892Z,22.41
2019-04-14T07:42:30.224Z,21.65
2019-04-14T07:45:39.175Z,22.43
2019-04-14T07:48:15.976Z,24.43
2019-04-14T07:50:56.558Z,24.64
2019-04-14T07:53:56.592Z,24.36
2019-04-14T07:56:50.437Z,25.89
2019-04-14T07:59:41.266Z,24.97
2019-04-14T08:02:22.527Z,24.28
2019-04-14T08:05:00.775Z,24.27
2019-04-14T08:07:32.736Z,24.31
2019-04-14T08:10:04.816Z,24.44
2019-04-14T08:12:38.337Z,25.07
2019-04-14T08:15:10.587Z,23.72
2019-04-14T08:17:43.709Z,23.77
2019-04-14T08:20:26.931Z,24.93
2019-04-14T08:22:50.689Z,25.25
2019-04-14T08:25:22.743Z,24.56
2019-04-14T08:27:54.842Z,22.14
2019-04-14T08:30:27.926Z,21.32
2019-04-14T08:33:00.438Z,21.08
2019-04-14T08:35:32.392Z,20.84
2019-04-14T08:38:04.609Z,19.72
2019-04-14T08:40:36.576Z,21.11
2019-04-14T08:43:26.094Z,22.65
2019-04-14T08:46:13.535Z,23.92
2019-04-14T08:48:52.252Z,23.76
2019-04-14T08:51:28.647Z,22.25
2019-04-14T08:54:06.807Z,20.10
2019-04-14T08:57:00.759Z,17.43
2019-04-14T08:59:50.325Z,15.99
2019-04-14T09:02:47.472Z,12.55
2019-04-14T09:05:41.668Z,11.30
2019-04-14T09:08:32.508Z,10.29
2019-04-14T09:11:05.933Z,10.80
2019-04-14T09:13:37.999Z,9.94
2019-04-14T09:16:10.408Z,8.62
2019-04-14T09:18:42.405Z,6.97
2019-04-14T09:21:14.423Z,7.24
2019-04-14T09:23:46.422Z,7.90
2019-04-14T09:26:18.463Z,7.96
2019-04-14T09:28:50.803Z,10.12
2019-04-14T09:31:22.833Z,10.63
2019-04-14T09:33:54.878Z,11.28
2019-04-14T09:36:26.908Z,10.88
2019-04-14T09:38:58.909Z,11.75
2019-04-14T09:41:30.965Z,12.41
2019-04-14T09:44:02.943Z,11.59
2019-04-14T09:46:35.132Z,11.57
2019-04-14T09:49:07.338Z,12.48
2019-04-14T09:51:40.025Z,13.06
2019-04-14T09:54:12.015Z,13.05
2019-04-14T09:56:44.012Z,11.25
2019-04-14T09:59:15.981Z,10.04
2019-04-14T10:01:48.073Z,9.80
2019-04-14T10:04:20.412Z,11.27
2019-04-14T10:06:52.368Z,9.07
2019-04-14T10:09:24.457Z,7.09
2019-04-14T10:11:59.393Z,7.08
2019-04-14T10:14:31.397Z,7.66
2019-04-14T10:17:03.418Z,7.92
2019-04-14T10:19:35.409Z,7.38
2019-04-14T10:22:07.455Z,8.42
2019-04-14T10:24:39.530Z,8.53
2019-04-14T10:27:11.665Z,9.82
2019-04-14T10:29:44.905Z,10.48
2019-04-14T10:32:16.877Z,12.00
2019-04-14T10:34:48.833Z,13.63
2019-04-14T10:37:21.265Z,11.89
2019-04-14T10:39:53.288Z,11.15
2019-04-14T10:42:25.321Z,11.71
2019-04-14T10:44:57.293Z,11.60
2019-04-14T10:47:29.415Z,11.27
2019-04-14T10:50:01.519Z,11.76
2019-04-14T10:52:33.529Z,10.06
2019-04-14T10:55:05.967Z,9.46
2019-04-14T10:57:38.005Z,9.04
2019-04-14T11:00:14.387Z,9.22
2019-04-14T11:02:46.870Z,9.32
2019-04-14T11:05:18.833Z,8.06
2019-04-14T11:07:51.277Z,8.05
2019-04-14T11:10:23.435Z,8.12
2019-04-14T11:12:55.430Z,8.98
2019-04-14T11:15:27.474Z,10.54
2019-04-14T11:17:59.514Z,13.50
2019-04-14T11:20:31.492Z,15.34
2019-04-14T11:23:03.868Z,16.58
2019-04-14T11:25:36.591Z,15.14
2019-04-14T11:28:08.590Z,14.54
2019-04-14T11:30:40.825Z,14.82
2019-04-14T11:33:21.629Z,15.99
2019-04-14T11:36:12.540Z,16.48
2019-04-14T11:38:49.677Z,15.52
2019-04-14T11:41:23.490Z,17.43
2019-04-14T11:43:55.466Z,18.83
2019-04-14T11:46:27.599Z,18.92
2019-04-14T11:49:00.133Z,20.86
2019-04-14T11:51:32.292Z,20.72
2019-04-14T11:54:04.628Z,21.30
2019-04-14T11:56:36.743Z,22.56
2019-04-14T11:59:08.863Z,23.22
2019-04-14T12:01:59.201Z,22.99
2019-04-14T12:04:34.955Z,23.00
2019-04-14T12:07:16.201Z,23.12
2019-04-14T12:09:57.021Z,23.09
2019-04-14T12:12:29.095Z,23.87
2019-04-14T12:15:01.246Z,24.57
2019-04-14T12:17:33.255Z,24.36
2019-04-14T12:20:06.888Z,24.67
2019-04-14T12:22:38.918Z,25.21
2019-04-14T12:25:11.853Z,25.45
2019-04-14T12:27:44.356Z,26.08
2019-04-14T12:30:17.934Z,25.17
2019-04-14T12:32:50.366Z,24.60
2019-04-14T12:35:22.418Z,24.45
2019-04-14T12:37:54.492Z,24.35
2019-04-14T12:40:26.733Z,24.75
2019-04-14T12:43:22.415Z,24.86
2019-04-14T12:46:28.445Z,24.73
2019-04-14T12:49:08.432Z,24.81
2019-04-14T12:51:47.853Z,25.29
2019-04-14T12:54:19.953Z,25.68
2019-04-14T12:56:52.942Z,25.91
2019-04-14T12:59:25.092Z,25.70
2019-04-14T13:02:18.731Z,25.27
2019-04-14T13:04:51.131Z,25.64
2019-04-14T13:07:23.065Z,25.45
2019-04-14T13:09:55.097Z,25.58
2019-04-14T13:12:27.135Z,25.29
2019-04-14T13:14:59.216Z,25.39
2019-04-14T13:17:31.272Z,25.87
2019-04-14T13:20:03.301Z,26.06
2019-04-14T13:22:35.426Z,25.90
2019-04-14T13:25:08.290Z,25.59
2019-04-14T13:27:40.640Z,25.97
2019-04-14T13:30:14.811Z,25.76
2019-04-14T13:32:46.869Z,25.78
2019-04-14T13:35:18.942Z,25.90
2019-04-14T13:37:51.340Z,26.11
2019-04-14T13:40:23.388Z,26.05
2019-04-14T13:42:55.391Z,26.43
2019-04-14T13:45:27.405Z,26.77
2019-04-14T13:47:59.512Z,26.75
2019-04-14T13:50:31.770Z,27.02
2019-04-14T13:53:03.898Z,26.96
2019-04-14T13:55:35.886Z,26.72
2019-04-14T13:58:07.879Z,26.38
2019-04-14T14:00:39.851Z,26.43
2019-04-14T14:03:11.913Z,26.00
2019-04-14T14:05:44.021Z,26.21
2019-04-14T14:08:16.031Z,25.65
2019-04-14T14:10:48.008Z,25.76
2019-04-14T14:13:48.086Z,25.94
2019-04-14T14:16:40.022Z,26.15
2019-04-14T14:19:31.522Z,25.04
2019-04-14T14:22:13.395Z,26.08
2019-04-14T14:25:01.559Z,26.50
2019-04-14T14:27:33.732Z,26.92
2019-04-14T14:30:06.293Z,26.86
2019-04-14T14:32:42.874Z,26.82
2019-04-14T14:35:14.940Z,26.89
2019-04-14T14:37:46.969Z,27.14
2019-04-14T14:40:20.813Z,27.06
2019-04-14T14:42:52.998Z,27.37
2019-04-14T14:45:49.787Z,27.60
2019-04-14T14:48:25.365Z,27.39
2019-04-14T14:51:17.940Z,26.93
2019-04-14T14:53:50.045Z,26.81
2019-04-14T14:56:22.161Z,26.96
2019-04-14T14:58:54.141Z,27.26
2019-04-14T15:01:26.245Z,27.52
2019-04-14T15:03:58.406Z,27.79
2019-04-14T15:06:30.496Z,28.03
2019-04-14T15:09:05.132Z,27.61
2019-04-14T15:11:37.281Z,27.76
2019-04-14T15:14:09.276Z,27.82
2019-04-14T15:16:41.416Z,27.74
2019-04-14T15:19:13.568Z,27.37
2019-04-14T15:21:45.701Z,27.29
2019-04-14T15:24:17.714Z,27.05
2019-04-14T15:26:52.140Z,27.12
2019-04-14T15:29:25.949Z,27.15
2019-04-14T15:31:58.144Z,27.30
2019-04-14T15:34:30.460Z,27.52
2019-04-14T15:37:02.534Z,27.42
2019-04-14T15:39:37.408Z,27.44
2019-04-14T15:42:08.212Z,27.56
2019-04-14T15:44:40.700Z,27.43
2019-04-14T15:47:14.236Z,27.59
2019-04-14T15:49:46.403Z,27.26
2019-04-14T15:52:18.577Z,27.25
2019-04-14T15:54:51.014Z,27.46
2019-04-14T15:57:44.761Z,27.52
2019-04-14T16:00:40.198Z,27.22
2019-04-14T16:03:23.465Z,26.89
2019-04-14T16:06:12.864Z,26.43
2019-04-14T16:08:51.877Z,26.55
2019-04-14T16:11:54.863Z,26.49
2019-04-14T16:14:57.760Z,26.43
2019-04-14T16:17:50.283Z,26.17
2019-04-14T16:20:26.147Z,26.04
2019-04-14T16:22:58.148Z,26.12
2019-04-14T16:25:54.339Z,26.00
2019-04-14T16:28:48.229Z,25.94
2019-04-14T16:31:44.307Z,25.77
2019-04-14T16:34:29.479Z,26.09
2019-04-14T16:37:01.425Z,26.01
2019-04-14T16:39:33.537Z,25.96
2019-04-14T16:42:05.567Z,26.23
2019-04-14T16:44:37.575Z,26.29
2019-04-14T16:47:09.572Z,26.03
2019-04-14T16:49:41.549Z,26.26
2019-04-14T16:52:42.680Z,26.48
2019-04-14T16:55:23.790Z,26.59
2019-04-14T16:58:13.315Z,26.61
2019-04-14T17:00:48.813Z,26.66
2019-04-14T17:03:21.188Z,26.90
2019-04-14T17:05:53.324Z,26.99
2019-04-14T17:08:25.321Z,27.25
2019-04-14T17:10:57.312Z,27.51
2019-04-14T17:13:31.667Z,27.52
2019-04-14T17:16:28.365Z,27.71
2019-04-14T17:19:07.389Z,27.53
2019-04-14T17:21:50.325Z,27.68
2019-04-14T17:24:35.302Z,27.49
2019-04-14T17:27:23.743Z,27.49
2019-04-14T17:30:27.074Z,27.62
2019-04-14T17:33:33.203Z,27.72
2019-04-14T17:36:12.241Z,27.86
2019-04-14T17:39:08.962Z,27.87
2019-04-14T17:42:09.161Z,28.04
2019-04-14T17:45:12.418Z,28.26
2019-04-14T17:47:50.520Z,28.37
2019-04-14T17:50:40.837Z,28.38
2019-04-14T17:53:34.487Z,28.00
2019-04-14T17:56:13.448Z,28.33
2019-04-14T17:59:01.685Z,28.59
2019-04-14T18:01:52.997Z,28.57
2019-04-14T18:04:32.825Z,28.79
2019-04-14T18:07:13.795Z,28.80
2019-04-14T18:10:04.745Z,29.02
2019-04-14T18:12:45.453Z,28.91
2019-04-14T18:15:39.634Z,29.31
2019-04-14T18:18:33.616Z,29.38
2019-04-14T18:21:07.906Z,29.47
2019-04-14T18:23:40.279Z,29.67
2019-04-14T18:26:14.201Z,29.87
2019-04-14T18:29:20.564Z,29.77
2019-04-14T18:32:13.028Z,29.98
2019-04-14T18:34:58.716Z,29.88
2019-04-14T18:37:53.213Z,29.92
2019-04-14T18:40:36.227Z,30.24
2019-04-14T18:43:33.058Z,30.18
2019-04-14T18:46:20.123Z,30.31
2019-04-14T18:49:14.395Z,30.33
2019-04-14T18:52:11.302Z,30.45
2019-04-14T18:54:58.620Z,30.69
2019-04-14T18:57:43.618Z,31.12
2019-04-14T19:00:23.781Z,31.64
2019-04-14T19:02:55.894Z,31.97
2019-04-14T19:05:28.505Z,32.16
2019-04-14T19:08:00.950Z,32.33
2019-04-14T19:10:33.389Z,32.29
2019-04-14T19:13:18.607Z,32.67
2019-04-14T19:16:04.782Z,32.72
2019-04-14T19:18:42.999Z,32.80
2019-04-14T19:21:17.280Z,32.92
2019-04-14T19:23:49.329Z,33.17
2019-04-14T19:26:21.397Z,33.10
2019-04-14T19:28:53.497Z,33.27
2019-04-14T19:31:25.488Z,33.45
2019-04-14T19:33:57.492Z,33.55
2019-04-14T19:36:29.614Z,33.75
2019-04-14T19:39:01.563Z,33.92
2019-04-14T19:41:33.551Z,33.93
2019-04-14T19:44:05.626Z,34.14
2019-04-14T19:46:37.627Z,34.40
2019-04-14T19:49:10.221Z,34.78
2019-04-14T19:51:43.296Z,34.71
2019-04-14T19:54:15.635Z,34.65
2019-04-14T19:56:47.712Z,34.66
2019-04-14T19:59:20.702Z,34.88
2019-04-14T20:01:52.673Z,34.92
2019-04-14T20:04:25.004Z,35.09
2019-04-14T20:06:58.880Z,35.23
2019-04-14T20:09:31.298Z,35.16
2019-04-14T20:12:03.376Z,35.16
2019-04-14T20:14:35.437Z,35.07
2019-04-14T20:17:25.376Z,34.88
2019-04-14T20:20:09.978Z,35.27
2019-04-14T20:23:09.879Z,34.97
2019-04-14T20:26:01.050Z,35.14
2019-04-14T20:28:46.868Z,35.12
2019-04-14T20:31:33.059Z,35.18
2019-04-14T20:34:05.264Z,35.46
2019-04-14T20:36:37.517Z,35.50
2019-04-14T20:39:15.126Z,35.47
2019-04-14T20:41:47.243Z,35.39
2019-04-14T20:44:19.400Z,35.58
2019-04-14T20:46:51.484Z,35.66
2019-04-14T20:49:23.569Z,35.60
2019-04-14T20:51:55.548Z,35.94
2019-04-14T20:54:27.643Z,36.13
2019-04-14T20:57:00.476Z,36.08
2019-04-14T20:59:32.439Z,35.99
2019-04-14T21:02:22.628Z,36.22
2019-04-14T21:05:10.436Z,36.62
2019-04-14T21:07:59.944Z,36.57
2019-04-14T21:10:37.579Z,36.84
2019-04-14T21:13:16.635Z,36.73
2019-04-14T21:15:57.191Z,37.02
2019-04-14T21:18:34.652Z,37.02
2019-04-14T21:21:18.521Z,37.13
2019-04-14T21:24:01.698Z,37.22
2019-04-14T21:26:45.242Z,37.17
2019-04-14T21:29:35.028Z,37.32
2019-04-14T21:32:12.737Z,37.35
2019-04-14T21:35:02.580Z,37.48
2019-04-14T21:37:59.259Z,37.52
2019-04-14T21:40:52.558Z,37.71
2019-04-14T21:43:24.561Z,37.84
2019-04-14T21:45:56.539Z,38.32
2019-04-14T21:48:28.562Z,38.24
2019-04-14T21:51:01.035Z,38.47
2019-04-14T21:53:33.182Z,38.52
2019-04-14T21:56:13.230Z,38.56
2019-04-14T21:58:48.224Z,38.68
2019-04-14T22:01:57.191Z,38.49
2019-04-14T22:04:47.987Z,38.52
2019-04-14T22:07:38.975Z,38.31
2019-04-14T22:10:42.788Z,38.55
2019-04-14T22:13:16.352Z,38.42
2019-04-14T22:15:48.293Z,38.46
2019-04-14T22:18:20.257Z,38.44
2019-04-14T22:20:52.507Z,38.63
2019-04-14T22:23:24.774Z,38.86
2019-04-14T22:25:56.880Z,38.78
2019-04-14T22:28:29.939Z,38.84
2019-04-14T22:31:02.217Z,39.10
2019-04-14T22:33:35.278Z,39.12
2019-04-14T22:36:07.401Z,39.07
2019-04-14T22:38:39.471Z,39.11
2019-04-14T22:41:11.420Z,39.32
2019-04-14T22:43:43.505Z,39.55
2019-04-14T22:46:15.621Z,39.53
2019-04-14T22:48:47.773Z,39.54
2019-04-14T22:51:19.719Z,39.83
2019-04-14T22:53:51.706Z,40.04
2019-04-14T22:56:23.768Z,40.27
2019-04-14T22:58:55.793Z,40.28
2019-04-14T23:01:30.629Z,40.10
2019-04-14T23:05:22.727Z,40.14
2019-04-14T23:08:13.632Z,40.35
2019-04-14T23:11:10.649Z,40.55
2019-04-14T23:13:48.746Z,40.54
2019-04-14T23:16:51.676Z,40.78
2019-04-14T23:19:30.489Z,40.92
2019-04-14T23:22:24.478Z,40.89
2019-04-14T23:24:56.552Z,41.20
2019-04-14T23:27:28.606Z,41.29
2019-04-14T23:30:00.843Z,41.41
2019-04-14T23:32:32.870Z,41.49
2019-04-14T23:35:05.368Z,41.75
2019-04-14T23:37:37.412Z,41.93
2019-04-14T23:40:09.585Z,42.05
2019-04-14T23:42:41.551Z,42.09
2019-04-14T23:45:13.604Z,42.03
2019-04-14T23:47:45.587Z,42.29
2019-04-14T23:50:17.533Z,42.55
2019-04-14T23:52:49.973Z,42.75
2019-04-14T23:55:21.992Z,42.82
2019-04-14T23:57:53.973Z,42.94
